Ana Sayfa
METAR-TAF:

METAR-TAF

Havaalanları :

Gran Canaria, İspanya

Gran Canaria Havalimanı

Enlem: 27-56N, Boylam: 015-23W, yükseklik: 23 m

Güncel hava durumu gözlemi

Rapor saat 17:00 UTC de 10 dakika önce yapıldı.
Rüzgar kuzeydan 19 kt
Sıcaklık 20°C
Nem 60%
Basınç 1024 hPa
Görüş mesafesi 10 km veya daha fazla
3000 ft yükseklikte az bulutlu

METAR: GCLP 141700Z 01019KT 9999 FEW030 20/12 Q1024 NOSIG

Saat: 17:10 (17:10 UTC)

Tahmin

Rapor saat 14:00 UTC de 3 saat ve 10 dakika önce yapıldı.
Ayın 14'si saat 15 UTC'den ayın 15'si saat 15 UTC'ye kadar geçerli Tahmin
Rüzgar kuzeydan 18 kt
Görüş mesafesi 10 km veya daha fazla
2500 ft yükseklikte az bulutlu

TAF: GCLP 141400Z 1415/1515 01018KT 9999 FEW025 TX22/1514Z TN16/1506Z

4.000'den fazla havaalanı için hava durumu gözlemleri ve tahminleri (METAR ve TAF raporları).

Kullanılabilir istasyonlar harita üzerinde sarı ve kırmızı noktalarla gösterilir.

İstasyonun adını görmek için fareyi noktanın üzerinde gezdirin.

Sonrasında hava gözlem ve tahminlerini görmek için tıklayın.

Haritayı değiştirmek için: yaklaştırmak için siyah artı işaretli yeşil düğmeye ve uzaklaştırmak için de eksi işaretli düğmeye hızla tıklayın; bitişik haritalar için yeşil okları kullanın.


METAR-TAF: